Dania, FL

8:17 AM EDT on August 31, 2015 (GMT -0400)
Fort Lauderdale-Hollywood International | | Change Station
CLOSE
Current Station
Airport
Location: Ft Lauderdale,
Elevation: 10 ft
Nearby Weather Stations

Elev 10 ft 26.07 °N, 80.15 °W | Updated 24 minutes ago

Partly Cloudy
Partly Cloudy
81 °F
Feels Like 87 °F
N
14
Wind Variable Wind from SE

Today
High -- | Low -- °F
--% Chance of Precip.
Yesterday
High -- | Low -- °F
Precip. -- in
7:00 AM 7:41 PM
Waning Gibbous, 95% visible
Pressure 30.01 in
Visibility 10.0 miles
Clouds Few 2300 ft
Few 2800 ft
Few 3600 ft
Heat Index 87 °F
Dew Point 76 °F
Humidity 85%
Rainfall 0.00 in
Snow Depth Not available.
UV 1 out of 12
Pollen 3.30 out of 12
Air Quality Not available.
Flu Activity Not available.
METAR KFLL 311153Z 14012KT 10SM FEW023 FEW028 FEW036 27/24 A3001 RMK AO2 SLP163 70017 T02720244 10272 20244 53010 $
Pressure 30.01 in
Visibility 10.0 miles
Clouds Few 2300 ft
Few 2800 ft
Few 3600 ft
Heat Index 87 °F
Dew Point 76 °F
Humidity 85%
Rainfall 0.00 in
Snow Depth Not available.
UV 1 out of 12
Pollen 3.30 out of 12
Air Quality Not available.
Flu Activity Not available.
METAR KFLL 311153Z 14012KT 10SM FEW023 FEW028 FEW036 27/24 A3001 RMK AO2 SLP163 70017 T02720244 10272 20244 53010 $

10-Day Weather Forecast

×

Almanac

Astronomy

Aug. 31, 2015 Rise Set
Actual Time
Civil Twilight
Nautical Twilight
Astronomical Twilight
Moon
Length of Visible Light
Length of Day
Tomorrow will be .
, % of the Moon is Illuminated

Today's Extremes

State Highs State Lows

Community

WunderPhotos

Upload Photos

1,851,222 photos uploaded!

WunderBlogs® & News

Nearby

Air Quality

  Air Quality AQ Index Pollutant
Not available.

Snow Depth

Station Depth Elevation

Earthquake Activity

City Distance Mag. Time & Date
Minimum magnitude displayed is 2.5.

Coastal Water Temperatures

Place Temperature

Stations

Nearby Weather Stations

Station Location Temp. Windchill Dew Point Humidity Wind Precip. Elev Updated Type